sensor_id;sensor_type;location;lat;lon;timestamp;temperature;humidity
6252;DHT22;3159;52.414;9.784;2023-09-08T00:00:21;22.10;99.90
6252;DHT22;3159;52.414;9.784;2023-09-08T00:02:48;22.20;99.90
6252;DHT22;3159;52.414;9.784;2023-09-08T00:05:15;22.30;99.90
6252;DHT22;3159;52.414;9.784;2023-09-08T00:07:42;22.30;99.90
6252;DHT22;3159;52.414;9.784;2023-09-08T00:10:09;22.30;99.90
6252;DHT22;3159;52.414;9.784;2023-09-08T00:12:40;22.10;99.90
6252;DHT22;3159;52.414;9.784;2023-09-08T00:15:07;22.20;99.90
6252;DHT22;3159;52.414;9.784;2023-09-08T00:17:34;22.20;99.90
6252;DHT22;3159;52.414;9.784;2023-09-08T00:20:05;22.20;99.90
6252;DHT22;3159;52.414;9.784;2023-09-08T00:22:34;22.30;99.90
6252;DHT22;3159;52.414;9.784;2023-09-08T00:25:01;22.20;99.90
6252;DHT22;3159;52.414;9.784;2023-09-08T00:27:29;22.20;99.90
6252;DHT22;3159;52.414;9.784;2023-09-08T00:29:58;22.20;99.90
6252;DHT22;3159;52.414;9.784;2023-09-08T00:32:27;21.90;99.90
6252;DHT22;3159;52.414;9.784;2023-09-08T00:34:54;22.00;99.90
6252;DHT22;3159;52.414;9.784;2023-09-08T00:37:21;22.00;99.90
6252;DHT22;3159;52.414;9.784;2023-09-08T00:39:48;21.90;99.90
6252;DHT22;3159;52.414;9.784;2023-09-08T00:42:15;21.90;99.90
6252;DHT22;3159;52.414;9.784;2023-09-08T00:44:42;22.00;99.90
6252;DHT22;3159;52.414;9.784;2023-09-08T00:47:10;22.00;99.90
6252;DHT22;3159;52.414;9.784;2023-09-08T00:49:37;22.00;99.90
6252;DHT22;3159;52.414;9.784;2023-09-08T00:52:05;22.00;99.90
6252;DHT22;3159;52.414;9.784;2023-09-08T00:54:32;21.90;99.90
6252;DHT22;3159;52.414;9.784;2023-09-08T00:57:01;21.90;99.90
6252;DHT22;3159;52.414;9.784;2023-09-08T00:59:31;21.90;99.90
6252;DHT22;3159;52.414;9.784;2023-09-08T01:01:58;21.90;99.90
6252;DHT22;3159;52.414;9.784;2023-09-08T01:04:27;21.80;99.90
6252;DHT22;3159;52.414;9.784;2023-09-08T01:06:54;21.80;99.90
6252;DHT22;3159;52.414;9.784;2023-09-08T01:09:23;21.80;99.90
6252;DHT22;3159;52.414;9.784;2023-09-08T01:11:51;21.80;99.90
6252;DHT22;3159;52.414;9.784;2023-09-08T01:14:18;21.20;99.90
6252;DHT22;3159;52.414;9.784;2023-09-08T01:16:46;21.30;99.90
6252;DHT22;3159;52.414;9.784;2023-09-08T01:19:15;21.40;99.90
6252;DHT22;3159;52.414;9.784;2023-09-08T01:22:02;21.50;99.90
6252;DHT22;3159;52.414;9.784;2023-09-08T01:27:34;21.50;99.90
6252;DHT22;3159;52.414;9.784;2023-09-08T01:30:02;21.50;99.90
6252;DHT22;3159;52.414;9.784;2023-09-08T01:32:30;21.50;99.90
6252;DHT22;3159;52.414;9.784;2023-09-08T01:34:58;21.50;99.90
6252;DHT22;3159;52.414;9.784;2023-09-08T01:37:25;21.50;99.90
6252;DHT22;3159;52.414;9.784;2023-09-08T01:39:53;21.40;99.90
6252;DHT22;3159;52.414;9.784;2023-09-08T01:42:19;21.40;99.90
6252;DHT22;3159;52.414;9.784;2023-09-08T01:44:48;21.40;99.90
6252;DHT22;3159;52.414;9.784;2023-09-08T01:47:15;21.30;99.90
6252;DHT22;3159;52.414;9.784;2023-09-08T01:49:42;21.30;99.90
6252;DHT22;3159;52.414;9.784;2023-09-08T01:52:09;21.30;99.90
6252;DHT22;3159;52.414;9.784;2023-09-08T01:54:36;21.20;99.90
6252;DHT22;3159;52.414;9.784;2023-09-08T01:57:03;21.20;99.90
6252;DHT22;3159;52.414;9.784;2023-09-08T01:59:30;21.20;99.90
6252;DHT22;3159;52.414;9.784;2023-09-08T02:07:04;21.10;99.90
6252;DHT22;3159;52.414;9.784;2023-09-08T02:09:32;21.10;99.90
6252;DHT22;3159;52.414;9.784;2023-09-08T02:11:59;21.10;99.90
6252;DHT22;3159;52.414;9.784;2023-09-08T02:14:26;21.10;99.90
6252;DHT22;3159;52.414;9.784;2023-09-08T02:19:21;21.00;99.90
6252;DHT22;3159;52.414;9.784;2023-09-08T02:21:48;21.00;99.90
6252;DHT22;3159;52.414;9.784;2023-09-08T02:24:16;21.00;99.90
6252;DHT22;3159;52.414;9.784;2023-09-08T02:26:43;20.90;99.90
6252;DHT22;3159;52.414;9.784;2023-09-08T02:29:10;20.90;99.90
6252;DHT22;3159;52.414;9.784;2023-09-08T02:31:37;20.80;99.90
6252;DHT22;3159;52.414;9.784;2023-09-08T02:34:04;20.80;99.90
6252;DHT22;3159;52.414;9.784;2023-09-08T02:36:30;20.80;99.90
6252;DHT22;3159;52.414;9.784;2023-09-08T02:38:57;20.80;99.90
6252;DHT22;3159;52.414;9.784;2023-09-08T02:41:27;20.80;99.90
6252;DHT22;3159;52.414;9.784;2023-09-08T02:43:54;20.80;99.90
6252;DHT22;3159;52.414;9.784;2023-09-08T02:46:21;20.80;99.90
6252;DHT22;3159;52.414;9.784;2023-09-08T02:48:48;20.80;99.90
6252;DHT22;3159;52.414;9.784;2023-09-08T02:51:18;20.70;99.90
6252;DHT22;3159;52.414;9.784;2023-09-08T02:53:45;20.70;99.90
6252;DHT22;3159;52.414;9.784;2023-09-08T02:56:12;20.60;99.90
6252;DHT22;3159;52.414;9.784;2023-09-08T02:58:40;20.60;99.90
6252;DHT22;3159;52.414;9.784;2023-09-08T03:01:11;20.60;99.90
6252;DHT22;3159;52.414;9.784;2023-09-08T03:03:40;20.60;99.90
6252;DHT22;3159;52.414;9.784;2023-09-08T03:06:07;20.60;99.90
6252;DHT22;3159;52.414;9.784;2023-09-08T03:08:34;20.50;99.90
6252;DHT22;3159;52.414;9.784;2023-09-08T03:11:03;20.50;99.90
6252;DHT22;3159;52.414;9.784;2023-09-08T03:13:30;20.50;99.90
6252;DHT22;3159;52.414;9.784;2023-09-08T03:16:02;20.40;99.90
6252;DHT22;3159;52.414;9.784;2023-09-08T03:18:29;20.50;99.90
6252;DHT22;3159;52.414;9.784;2023-09-08T03:20:56;20.40;99.90
6252;DHT22;3159;52.414;9.784;2023-09-08T03:23:23;20.40;99.90
6252;DHT22;3159;52.414;9.784;2023-09-08T03:25:49;20.40;99.90
6252;DHT22;3159;52.414;9.784;2023-09-08T03:28:17;20.30;99.90
6252;DHT22;3159;52.414;9.784;2023-09-08T03:30:44;20.30;99.90
6252;DHT22;3159;52.414;9.784;2023-09-08T03:33:12;20.30;99.90
6252;DHT22;3159;52.414;9.784;2023-09-08T03:35:39;20.30;99.90
6252;DHT22;3159;52.414;9.784;2023-09-08T03:38:06;20.20;99.90
6252;DHT22;3159;52.414;9.784;2023-09-08T03:40:33;20.20;99.90
6252;DHT22;3159;52.414;9.784;2023-09-08T03:43:00;20.20;99.90
6252;DHT22;3159;52.414;9.784;2023-09-08T03:45:27;20.10;99.90
6252;DHT22;3159;52.414;9.784;2023-09-08T03:47:54;20.10;99.90
6252;DHT22;3159;52.414;9.784;2023-09-08T03:50:22;20.10;99.90
6252;DHT22;3159;52.414;9.784;2023-09-08T03:52:50;20.10;99.90
6252;DHT22;3159;52.414;9.784;2023-09-08T03:55:17;20.10;99.90
6252;DHT22;3159;52.414;9.784;2023-09-08T03:57:44;20.00;99.90
6252;DHT22;3159;52.414;9.784;2023-09-08T04:00:12;20.00;99.90
6252;DHT22;3159;52.414;9.784;2023-09-08T04:02:44;20.00;99.90
6252;DHT22;3159;52.414;9.784;2023-09-08T04:05:11;19.90;99.90
6252;DHT22;3159;52.414;9.784;2023-09-08T04:07:40;19.90;99.90
6252;DHT22;3159;52.414;9.784;2023-09-08T04:10:08;19.90;99.90
6252;DHT22;3159;52.414;9.784;2023-09-08T04:12:35;19.90;99.90
6252;DHT22;3159;52.414;9.784;2023-09-08T04:15:02;19.90;99.90
6252;DHT22;3159;52.414;9.784;2023-09-08T04:17:29;19.80;99.90
6252;DHT22;3159;52.414;9.784;2023-09-08T04:19:55;19.80;99.90
6252;DHT22;3159;52.414;9.784;2023-09-08T04:22:22;19.80;99.90
6252;DHT22;3159;52.414;9.784;2023-09-08T04:24:51;19.80;99.90
6252;DHT22;3159;52.414;9.784;2023-09-08T04:27:18;19.80;99.90
6252;DHT22;3159;52.414;9.784;2023-09-08T04:29:45;19.80;99.90
6252;DHT22;3159;52.414;9.784;2023-09-08T04:32:12;19.80;99.90
6252;DHT22;3159;52.414;9.784;2023-09-08T04:34:40;19.80;99.90
6252;DHT22;3159;52.414;9.784;2023-09-08T04:37:08;19.70;99.90
6252;DHT22;3159;52.414;9.784;2023-09-08T04:39:35;19.80;99.90
6252;DHT22;3159;52.414;9.784;2023-09-08T04:42:05;19.70;99.90
6252;DHT22;3159;52.414;9.784;2023-09-08T04:44:32;19.70;99.90
6252;DHT22;3159;52.414;9.784;2023-09-08T04:46:59;19.70;99.90
6252;DHT22;3159;52.414;9.784;2023-09-08T04:49:54;19.70;99.90
6252;DHT22;3159;52.414;9.784;2023-09-08T04:52:22;19.70;99.90
6252;DHT22;3159;52.414;9.784;2023-09-08T04:54:49;19.60;99.90
6252;DHT22;3159;52.414;9.784;2023-09-08T04:57:17;19.60;99.90
6252;DHT22;3159;52.414;9.784;2023-09-08T04:59:44;19.60;99.90
6252;DHT22;3159;52.414;9.784;2023-09-08T05:02:11;19.60;99.90
6252;DHT22;3159;52.414;9.784;2023-09-08T05:04:38;19.60;99.90
6252;DHT22;3159;52.414;9.784;2023-09-08T05:07:05;19.40;99.90
6252;DHT22;3159;52.414;9.784;2023-09-08T05:09:31;19.40;99.90
6252;DHT22;3159;52.414;9.784;2023-09-08T05:11:59;19.30;99.90
6252;DHT22;3159;52.414;9.784;2023-09-08T05:14:28;19.40;99.90
6252;DHT22;3159;52.414;9.784;2023-09-08T05:16:55;19.30;99.90
6252;DHT22;3159;52.414;9.784;2023-09-08T05:19:22;19.20;99.90
6252;DHT22;3159;52.414;9.784;2023-09-08T05:21:50;19.30;99.90
6252;DHT22;3159;52.414;9.784;2023-09-08T05:24:17;19.40;99.90
6252;DHT22;3159;52.414;9.784;2023-09-08T05:26:44;19.40;99.90
6252;DHT22;3159;52.414;9.784;2023-09-08T05:29:11;19.30;99.90
6252;DHT22;3159;52.414;9.784;2023-09-08T05:31:39;19.30;99.90
6252;DHT22;3159;52.414;9.784;2023-09-08T05:34:06;19.20;99.90
6252;DHT22;3159;52.414;9.784;2023-09-08T05:36:34;18.90;99.90
6252;DHT22;3159;52.414;9.784;2023-09-08T05:39:02;18.70;99.90
6252;DHT22;3159;52.414;9.784;2023-09-08T05:41:29;18.60;99.90
6252;DHT22;3159;52.414;9.784;2023-09-08T05:43:57;18.50;99.90
6252;DHT22;3159;52.414;9.784;2023-09-08T05:46:24;18.80;99.90
6252;DHT22;3159;52.414;9.784;2023-09-08T05:48:52;18.90;99.90
6252;DHT22;3159;52.414;9.784;2023-09-08T05:51:19;19.10;99.90
6252;DHT22;3159;52.414;9.784;2023-09-08T05:53:48;18.90;99.90
6252;DHT22;3159;52.414;9.784;2023-09-08T05:56:15;18.80;99.90
6252;DHT22;3159;52.414;9.784;2023-09-08T05:58:42;18.80;99.90
6252;DHT22;3159;52.414;9.784;2023-09-08T06:01:09;19.00;99.90
6252;DHT22;3159;52.414;9.784;2023-09-08T06:03:36;18.60;99.90
6252;DHT22;3159;52.414;9.784;2023-09-08T06:06:04;18.80;99.90
6252;DHT22;3159;52.414;9.784;2023-09-08T06:08:31;18.90;99.90
6252;DHT22;3159;52.414;9.784;2023-09-08T06:10:58;18.80;99.90
6252;DHT22;3159;52.414;9.784;2023-09-08T06:13:25;19.10;99.90
6252;DHT22;3159;52.414;9.784;2023-09-08T06:15:52;19.00;99.90
6252;DHT22;3159;52.414;9.784;2023-09-08T06:18:19;19.20;99.90
6252;DHT22;3159;52.414;9.784;2023-09-08T06:20:47;19.00;99.90
6252;DHT22;3159;52.414;9.784;2023-09-08T06:23:15;19.00;99.90
6252;DHT22;3159;52.414;9.784;2023-09-08T06:25:42;18.90;99.90
6252;DHT22;3159;52.414;9.784;2023-09-08T06:28:09;18.90;99.90
6252;DHT22;3159;52.414;9.784;2023-09-08T06:30:36;19.40;99.90
6252;DHT22;3159;52.414;9.784;2023-09-08T06:33:07;19.70;99.90
6252;DHT22;3159;52.414;9.784;2023-09-08T06:35:34;19.60;99.90
6252;DHT22;3159;52.414;9.784;2023-09-08T06:38:01;19.90;99.90
6252;DHT22;3159;52.414;9.784;2023-09-08T06:40:30;19.60;99.90
6252;DHT22;3159;52.414;9.784;2023-09-08T06:42:57;19.80;99.90
6252;DHT22;3159;52.414;9.784;2023-09-08T06:45:24;19.90;99.90
6252;DHT22;3159;52.414;9.784;2023-09-08T06:47:51;20.30;99.90
6252;DHT22;3159;52.414;9.784;2023-09-08T06:50:20;20.30;99.90
6252;DHT22;3159;52.414;9.784;2023-09-08T06:52:47;20.70;99.90
6252;DHT22;3159;52.414;9.784;2023-09-08T06:55:14;20.60;99.90
6252;DHT22;3159;52.414;9.784;2023-09-08T06:57:43;20.80;99.90
6252;DHT22;3159;52.414;9.784;2023-09-08T07:00:11;21.00;99.90
6252;DHT22;3159;52.414;9.784;2023-09-08T07:02:38;21.10;99.90
6252;DHT22;3159;52.414;9.784;2023-09-08T07:05:05;21.10;99.90
6252;DHT22;3159;52.414;9.784;2023-09-08T07:07:33;21.60;99.90
6252;DHT22;3159;52.414;9.784;2023-09-08T07:10:01;21.90;99.90
6252;DHT22;3159;52.414;9.784;2023-09-08T07:12:28;21.80;99.90
6252;DHT22;3159;52.414;9.784;2023-09-08T07:14:58;21.80;99.90
6252;DHT22;3159;52.414;9.784;2023-09-08T07:17:25;22.40;99.90
6252;DHT22;3159;52.414;9.784;2023-09-08T07:19:52;21.90;99.90
6252;DHT22;3159;52.414;9.784;2023-09-08T07:22:19;22.30;99.90
6252;DHT22;3159;52.414;9.784;2023-09-08T07:24:46;22.90;99.90
6252;DHT22;3159;52.414;9.784;2023-09-08T07:27:14;22.90;99.90
6252;DHT22;3159;52.414;9.784;2023-09-08T07:29:41;23.10;99.90
6252;DHT22;3159;52.414;9.784;2023-09-08T07:32:10;22.60;99.90
6252;DHT22;3159;52.414;9.784;2023-09-08T07:34:37;23.20;99.90
6252;DHT22;3159;52.414;9.784;2023-09-08T07:37:04;23.30;99.90
6252;DHT22;3159;52.414;9.784;2023-09-08T07:39:31;23.20;99.90
6252;DHT22;3159;52.414;9.784;2023-09-08T07:41:58;23.60;99.90
6252;DHT22;3159;52.414;9.784;2023-09-08T07:44:25;23.90;99.90
6252;DHT22;3159;52.414;9.784;2023-09-08T07:46:52;23.90;99.90
6252;DHT22;3159;52.414;9.784;2023-09-08T07:49:23;23.90;99.90
6252;DHT22;3159;52.414;9.784;2023-09-08T07:51:49;24.50;99.90
6252;DHT22;3159;52.414;9.784;2023-09-08T07:54:16;25.10;99.90
6252;DHT22;3159;52.414;9.784;2023-09-08T07:56:43;25.30;99.90
6252;DHT22;3159;52.414;9.784;2023-09-08T07:59:10;25.50;99.90
6252;DHT22;3159;52.414;9.784;2023-09-08T08:01:37;25.30;99.90
6252;DHT22;3159;52.414;9.784;2023-09-08T08:04:04;25.40;99.90
6252;DHT22;3159;52.414;9.784;2023-09-08T08:06:33;24.60;99.90
6252;DHT22;3159;52.414;9.784;2023-09-08T08:09:00;24.80;99.90
6252;DHT22;3159;52.414;9.784;2023-09-08T08:11:27;25.40;99.90
6252;DHT22;3159;52.414;9.784;2023-09-08T08:13:54;25.30;99.90
6252;DHT22;3159;52.414;9.784;2023-09-08T08:16:22;25.70;99.90
6252;DHT22;3159;52.414;9.784;2023-09-08T08:18:50;25.10;99.90
6252;DHT22;3159;52.414;9.784;2023-09-08T08:21:17;25.70;99.90
6252;DHT22;3159;52.414;9.784;2023-09-08T08:23:45;24.90;99.90
6252;DHT22;3159;52.414;9.784;2023-09-08T08:26:12;25.70;99.90
6252;DHT22;3159;52.414;9.784;2023-09-08T08:28:39;25.80;99.90
6252;DHT22;3159;52.414;9.784;2023-09-08T08:31:06;26.90;99.90
6252;DHT22;3159;52.414;9.784;2023-09-08T08:33:33;26.50;99.90
6252;DHT22;3159;52.414;9.784;2023-09-08T08:36:00;26.30;99.90
6252;DHT22;3159;52.414;9.784;2023-09-08T08:38:27;27.30;99.90
6252;DHT22;3159;52.414;9.784;2023-09-08T08:41:02;27.20;99.90
6252;DHT22;3159;52.414;9.784;2023-09-08T08:43:31;26.90;99.90
6252;DHT22;3159;52.414;9.784;2023-09-08T08:45:58;26.90;99.90
6252;DHT22;3159;52.414;9.784;2023-09-08T08:48:27;27.40;99.90
6252;DHT22;3159;52.414;9.784;2023-09-08T08:50:56;27.20;99.90
6252;DHT22;3159;52.414;9.784;2023-09-08T08:53:24;27.20;99.90
6252;DHT22;3159;52.414;9.784;2023-09-08T08:55:55;26.80;99.90
6252;DHT22;3159;52.414;9.784;2023-09-08T08:58:22;27.20;99.90
6252;DHT22;3159;52.414;9.784;2023-09-08T09:00:53;27.40;99.90
6252;DHT22;3159;52.414;9.784;2023-09-08T09:03:24;27.60;99.90
6252;DHT22;3159;52.414;9.784;2023-09-08T09:05:51;26.70;99.90
6252;DHT22;3159;52.414;9.784;2023-09-08T09:08:19;27.40;99.90
6252;DHT22;3159;52.414;9.784;2023-09-08T09:10:49;27.30;99.90
6252;DHT22;3159;52.414;9.784;2023-09-08T09:13:18;27.80;99.90
6252;DHT22;3159;52.414;9.784;2023-09-08T09:15:45;28.50;99.90
6252;DHT22;3159;52.414;9.784;2023-09-08T09:18:13;28.50;99.90
6252;DHT22;3159;52.414;9.784;2023-09-08T09:20:41;28.60;99.90
6252;DHT22;3159;52.414;9.784;2023-09-08T09:23:27;27.70;99.90
6252;DHT22;3159;52.414;9.784;2023-09-08T09:25:54;27.60;99.90
6252;DHT22;3159;52.414;9.784;2023-09-08T09:28:23;28.30;99.90
6252;DHT22;3159;52.414;9.784;2023-09-08T09:30:51;28.80;99.90
6252;DHT22;3159;52.414;9.784;2023-09-08T09:33:20;29.50;99.90
6252;DHT22;3159;52.414;9.784;2023-09-08T09:35:48;29.20;99.90
6252;DHT22;3159;52.414;9.784;2023-09-08T09:38:17;30.00;99.90
6252;DHT22;3159;52.414;9.784;2023-09-08T09:40:45;29.30;99.90
6252;DHT22;3159;52.414;9.784;2023-09-08T09:43:13;30.10;99.90
6252;DHT22;3159;52.414;9.784;2023-09-08T09:45:43;29.50;99.90
6252;DHT22;3159;52.414;9.784;2023-09-08T09:48:10;30.00;99.90
6252;DHT22;3159;52.414;9.784;2023-09-08T09:50:39;29.50;99.90
6252;DHT22;3159;52.414;9.784;2023-09-08T09:53:09;29.40;99.90
6252;DHT22;3159;52.414;9.784;2023-09-08T09:55:37;29.60;99.90
6252;DHT22;3159;52.414;9.784;2023-09-08T09:58:06;29.20;99.90
6252;DHT22;3159;52.414;9.784;2023-09-08T10:00:34;29.60;99.90
6252;DHT22;3159;52.414;9.784;2023-09-08T10:03:04;29.40;99.90
6252;DHT22;3159;52.414;9.784;2023-09-08T10:05:32;29.40;99.90
6252;DHT22;3159;52.414;9.784;2023-09-08T10:07:59;30.30;99.90
6252;DHT22;3159;52.414;9.784;2023-09-08T10:10:27;29.90;99.90
6252;DHT22;3159;52.414;9.784;2023-09-08T10:12:59;29.70;99.90
6252;DHT22;3159;52.414;9.784;2023-09-08T10:15:28;30.70;99.90
6252;DHT22;3159;52.414;9.784;2023-09-08T10:17:57;30.90;99.90
6252;DHT22;3159;52.414;9.784;2023-09-08T10:20:27;30.90;99.90
6252;DHT22;3159;52.414;9.784;2023-09-08T10:23:04;30.50;99.90
6252;DHT22;3159;52.414;9.784;2023-09-08T10:25:35;30.10;99.90
6252;DHT22;3159;52.414;9.784;2023-09-08T10:28:04;30.80;99.90
6252;DHT22;3159;52.414;9.784;2023-09-08T10:30:34;30.70;99.90
6252;DHT22;3159;52.414;9.784;2023-09-08T10:33:01;31.10;99.90
6252;DHT22;3159;52.414;9.784;2023-09-08T10:35:31;31.70;99.90
6252;DHT22;3159;52.414;9.784;2023-09-08T10:38:23;31.50;99.90
6252;DHT22;3159;52.414;9.784;2023-09-08T10:40:50;30.50;99.90
6252;DHT22;3159;52.414;9.784;2023-09-08T10:43:18;30.90;99.90
6252;DHT22;3159;52.414;9.784;2023-09-08T10:45:46;32.30;99.90
6252;DHT22;3159;52.414;9.784;2023-09-08T10:48:14;33.10;99.90
6252;DHT22;3159;52.414;9.784;2023-09-08T10:50:44;31.60;99.90
6252;DHT22;3159;52.414;9.784;2023-09-08T10:53:14;32.50;99.90
6252;DHT22;3159;52.414;9.784;2023-09-08T10:55:42;32.00;99.90
6252;DHT22;3159;52.414;9.784;2023-09-08T10:58:18;30.90;99.90
6252;DHT22;3159;52.414;9.784;2023-09-08T11:00:47;31.40;99.90
6252;DHT22;3159;52.414;9.784;2023-09-08T11:03:26;32.10;99.90
6252;DHT22;3159;52.414;9.784;2023-09-08T11:05:56;32.30;99.90
6252;DHT22;3159;52.414;9.784;2023-09-08T11:08:24;32.90;99.90
6252;DHT22;3159;52.414;9.784;2023-09-08T11:10:51;32.30;99.90
6252;DHT22;3159;52.414;9.784;2023-09-08T11:13:18;32.20;99.90
6252;DHT22;3159;52.414;9.784;2023-09-08T11:15:45;31.60;99.90
6252;DHT22;3159;52.414;9.784;2023-09-08T11:18:12;31.30;99.90
6252;DHT22;3159;52.414;9.784;2023-09-08T11:20:39;31.40;99.90
6252;DHT22;3159;52.414;9.784;2023-09-08T11:23:08;30.80;99.90
6252;DHT22;3159;52.414;9.784;2023-09-08T11:25:35;31.80;99.90
6252;DHT22;3159;52.414;9.784;2023-09-08T11:28:03;31.70;99.90
6252;DHT22;3159;52.414;9.784;2023-09-08T11:30:30;31.80;99.90
6252;DHT22;3159;52.414;9.784;2023-09-08T11:32:57;32.30;99.90
6252;DHT22;3159;52.414;9.784;2023-09-08T11:35:27;31.60;99.90
6252;DHT22;3159;52.414;9.784;2023-09-08T11:37:59;31.60;99.90
6252;DHT22;3159;52.414;9.784;2023-09-08T11:40:30;31.70;99.90
6252;DHT22;3159;52.414;9.784;2023-09-08T11:42:58;31.60;99.90
6252;DHT22;3159;52.414;9.784;2023-09-08T11:45:25;31.90;99.90
6252;DHT22;3159;52.414;9.784;2023-09-08T11:47:53;32.10;99.90
6252;DHT22;3159;52.414;9.784;2023-09-08T11:50:20;31.40;99.90
6252;DHT22;3159;52.414;9.784;2023-09-08T11:52:50;31.90;99.90
6252;DHT22;3159;52.414;9.784;2023-09-08T11:55:18;32.10;99.90
6252;DHT22;3159;52.414;9.784;2023-09-08T11:57:49;31.40;99.90
6252;DHT22;3159;52.414;9.784;2023-09-08T12:00:18;31.10;99.90
6252;DHT22;3159;52.414;9.784;2023-09-08T12:02:46;32.20;99.90
6252;DHT22;3159;52.414;9.784;2023-09-08T12:05:20;32.00;99.90
6252;DHT22;3159;52.414;9.784;2023-09-08T12:07:48;32.40;99.90
6252;DHT22;3159;52.414;9.784;2023-09-08T12:10:15;31.60;99.90
6252;DHT22;3159;52.414;9.784;2023-09-08T12:12:44;31.90;99.90
6252;DHT22;3159;52.414;9.784;2023-09-08T12:15:29;31.80;99.90
6252;DHT22;3159;52.414;9.784;2023-09-08T12:17:57;31.40;99.90
6252;DHT22;3159;52.414;9.784;2023-09-08T12:20:24;31.60;99.90
6252;DHT22;3159;52.414;9.784;2023-09-08T12:22:52;31.40;99.90
6252;DHT22;3159;52.414;9.784;2023-09-08T12:25:19;32.10;99.90
6252;DHT22;3159;52.414;9.784;2023-09-08T12:27:49;32.30;99.90
6252;DHT22;3159;52.414;9.784;2023-09-08T12:30:19;31.60;99.90
6252;DHT22;3159;52.414;9.784;2023-09-08T12:32:47;31.80;99.90
6252;DHT22;3159;52.414;9.784;2023-09-08T12:35:20;31.60;99.90
6252;DHT22;3159;52.414;9.784;2023-09-08T12:37:56;31.40;99.90
6252;DHT22;3159;52.414;9.784;2023-09-08T12:40:23;31.70;99.90
6252;DHT22;3159;52.414;9.784;2023-09-08T12:42:50;31.80;99.90
6252;DHT22;3159;52.414;9.784;2023-09-08T12:45:20;31.60;99.90
6252;DHT22;3159;52.414;9.784;2023-09-08T12:47:47;31.80;99.90
6252;DHT22;3159;52.414;9.784;2023-09-08T12:50:15;32.00;99.90
6252;DHT22;3159;52.414;9.784;2023-09-08T12:52:42;32.20;99.90
6252;DHT22;3159;52.414;9.784;2023-09-08T12:55:11;31.90;99.90
6252;DHT22;3159;52.414;9.784;2023-09-08T12:57:38;31.80;99.90
6252;DHT22;3159;52.414;9.784;2023-09-08T13:00:05;31.90;99.90
6252;DHT22;3159;52.414;9.784;2023-09-08T13:02:35;31.50;99.90
6252;DHT22;3159;52.414;9.784;2023-09-08T13:05:02;31.90;99.90
6252;DHT22;3159;52.414;9.784;2023-09-08T13:07:29;31.90;99.90
6252;DHT22;3159;52.414;9.784;2023-09-08T13:09:56;31.50;98.10
6252;DHT22;3159;52.414;9.784;2023-09-08T13:12:22;32.10;99.90
6252;DHT22;3159;52.414;9.784;2023-09-08T13:14:49;31.90;99.90
6252;DHT22;3159;52.414;9.784;2023-09-08T13:17:16;32.10;99.90
6252;DHT22;3159;52.414;9.784;2023-09-08T13:19:45;31.70;99.70
6252;DHT22;3159;52.414;9.784;2023-09-08T13:22:12;31.40;99.50
6252;DHT22;3159;52.414;9.784;2023-09-08T13:24:39;31.50;99.40
6252;DHT22;3159;52.414;9.784;2023-09-08T13:27:06;31.90;99.60
6252;DHT22;3159;52.414;9.784;2023-09-08T13:29:33;31.90;98.60
6252;DHT22;3159;52.414;9.784;2023-09-08T13:32:01;31.70;98.80
6252;DHT22;3159;52.414;9.784;2023-09-08T13:34:28;31.60;96.30
6252;DHT22;3159;52.414;9.784;2023-09-08T13:36:56;32.00;95.70
6252;DHT22;3159;52.414;9.784;2023-09-08T13:39:24;32.10;96.70
6252;DHT22;3159;52.414;9.784;2023-09-08T13:41:52;32.20;94.60
6252;DHT22;3159;52.414;9.784;2023-09-08T13:44:20;31.90;94.80
6252;DHT22;3159;52.414;9.784;2023-09-08T13:46:47;32.40;96.50
6252;DHT22;3159;52.414;9.784;2023-09-08T13:49:14;32.70;97.90
6252;DHT22;3159;52.414;9.784;2023-09-08T13:51:43;32.10;96.80
6252;DHT22;3159;52.414;9.784;2023-09-08T13:54:12;31.90;96.20
6252;DHT22;3159;52.414;9.784;2023-09-08T13:56:40;32.20;96.40
6252;DHT22;3159;52.414;9.784;2023-09-08T13:59:09;32.10;95.10
6252;DHT22;3159;52.414;9.784;2023-09-08T14:01:37;31.90;95.50
6252;DHT22;3159;52.414;9.784;2023-09-08T14:04:04;31.80;95.10
6252;DHT22;3159;52.414;9.784;2023-09-08T14:06:32;31.70;95.90
6252;DHT22;3159;52.414;9.784;2023-09-08T14:09:00;32.10;96.40
6252;DHT22;3159;52.414;9.784;2023-09-08T14:11:29;32.70;98.10
6252;DHT22;3159;52.414;9.784;2023-09-08T14:13:56;32.10;96.00
6252;DHT22;3159;52.414;9.784;2023-09-08T14:16:23;31.70;96.50
6252;DHT22;3159;52.414;9.784;2023-09-08T14:18:50;31.50;96.30
6252;DHT22;3159;52.414;9.784;2023-09-08T14:21:16;31.70;96.50
6252;DHT22;3159;52.414;9.784;2023-09-08T14:23:43;31.50;96.60
6252;DHT22;3159;52.414;9.784;2023-09-08T14:26:10;31.40;96.70
6252;DHT22;3159;52.414;9.784;2023-09-08T14:28:39;31.60;97.00
6252;DHT22;3159;52.414;9.784;2023-09-08T14:31:06;31.90;96.70
6252;DHT22;3159;52.414;9.784;2023-09-08T14:33:33;31.90;96.50
6252;DHT22;3159;52.414;9.784;2023-09-08T14:36:00;31.40;96.10
6252;DHT22;3159;52.414;9.784;2023-09-08T14:38:27;32.00;96.90
6252;DHT22;3159;52.414;9.784;2023-09-08T14:40:55;31.80;96.40
6252;DHT22;3159;52.414;9.784;2023-09-08T14:43:22;31.70;97.00
6252;DHT22;3159;52.414;9.784;2023-09-08T14:45:51;31.70;97.20
6252;DHT22;3159;52.414;9.784;2023-09-08T14:48:19;31.50;97.40
6252;DHT22;3159;52.414;9.784;2023-09-08T14:50:46;31.50;97.30
6252;DHT22;3159;52.414;9.784;2023-09-08T14:53:13;31.90;97.00
6252;DHT22;3159;52.414;9.784;2023-09-08T14:55:40;31.90;96.80
6252;DHT22;3159;52.414;9.784;2023-09-08T14:58:09;31.60;97.00
6252;DHT22;3159;52.414;9.784;2023-09-08T15:00:37;31.60;97.40
6252;DHT22;3159;52.414;9.784;2023-09-08T15:03:06;31.20;97.00
6252;DHT22;3159;52.414;9.784;2023-09-08T15:05:34;31.50;96.60
6252;DHT22;3159;52.414;9.784;2023-09-08T15:08:02;31.40;97.00
6252;DHT22;3159;52.414;9.784;2023-09-08T15:10:30;31.50;96.90
6252;DHT22;3159;52.414;9.784;2023-09-08T15:12:57;31.60;97.20
6252;DHT22;3159;52.414;9.784;2023-09-08T15:15:24;31.90;98.20
6252;DHT22;3159;52.414;9.784;2023-09-08T15:17:51;31.30;97.50
6252;DHT22;3159;52.414;9.784;2023-09-08T15:20:20;31.60;98.10
6252;DHT22;3159;52.414;9.784;2023-09-08T15:22:48;31.10;96.40
6252;DHT22;3159;52.414;9.784;2023-09-08T15:25:15;31.40;96.30
6252;DHT22;3159;52.414;9.784;2023-09-08T15:27:42;31.60;96.60
6252;DHT22;3159;52.414;9.784;2023-09-08T15:30:10;31.70;96.80
6252;DHT22;3159;52.414;9.784;2023-09-08T15:32:37;31.60;97.70
6252;DHT22;3159;52.414;9.784;2023-09-08T15:35:05;31.30;98.20
6252;DHT22;3159;52.414;9.784;2023-09-08T15:37:34;31.20;98.20
6252;DHT22;3159;52.414;9.784;2023-09-08T15:40:00;31.60;98.40
6252;DHT22;3159;52.414;9.784;2023-09-08T15:42:28;31.90;98.50
6252;DHT22;3159;52.414;9.784;2023-09-08T15:44:56;31.90;98.40
6252;DHT22;3159;52.414;9.784;2023-09-08T15:47:23;31.80;98.10
6252;DHT22;3159;52.414;9.784;2023-09-08T15:49:52;31.60;98.30
6252;DHT22;3159;52.414;9.784;2023-09-08T15:52:19;31.90;98.80
6252;DHT22;3159;52.414;9.784;2023-09-08T15:54:47;31.50;98.20
6252;DHT22;3159;52.414;9.784;2023-09-08T15:57:14;31.90;98.70
6252;DHT22;3159;52.414;9.784;2023-09-08T15:59:41;32.10;98.70
6252;DHT22;3159;52.414;9.784;2023-09-08T16:02:08;31.90;98.50
6252;DHT22;3159;52.414;9.784;2023-09-08T16:04:35;31.30;98.30
6252;DHT22;3159;52.414;9.784;2023-09-08T16:07:02;31.60;98.70
6252;DHT22;3159;52.414;9.784;2023-09-08T16:09:29;31.50;98.90
6252;DHT22;3159;52.414;9.784;2023-09-08T16:11:58;31.70;98.90
6252;DHT22;3159;52.414;9.784;2023-09-08T16:14:25;31.70;98.50
6252;DHT22;3159;52.414;9.784;2023-09-08T16:16:52;31.20;98.60